Snow/Ice From: 16-12-2017 16:00 Until: 17-12-2017 16:00 warning for: Snow/Ice Level: Yellow info button

Although rather usual in this region, locally or potentially dangerous phenomena are expected. (such as local winds, summer thunderstorms, rising streams or high waves) Be aware and pay attention to the latest weather updates, especially if you carry out activities exposed to weather or close to a stream or shoreline. 


Meteo18 Weather Cam more information Meteo18 Weather Cam


Thunder radar more information blitzortung!


warning for Snow/Ice more information rain snow radar


Visit our other weather sites:

Template documentation
and downloads

And another site



Weather Underground History page Text

Daily Summary for October 6, 2017 Units:  Both    English   Metric
« Previous Day
Next Day »
Daily Weekly Monthly Yearly Custom
  High: Low: Average:
Temperature: 56.7 °F /  13.7 °C 45.3 °F /  7.4 °C 50.7 °F /  10.4 °C
Dew Point: 54.1 °F /  12.3 °C 42.4 °F /  5.8 °C 46.8 °F /  8.2 °C
Humidity: 97 % 65 % 87 %
Wind Speed: 9 mph /  14.5 km/h - 1.9 mph /  3.1 km/h
Wind Gust: 15 mph /  24.1 km/h - -
Wind:- - WSW
Pressure: 30.4 in /  1028.7 hPa 30.2 in /  1022.2 hPa -
Precipitation: 0.01 in /  0.3 mm    
Historical Graphs
 
 
Tabular Data for October 6, 2017
Time Temperature Dew Point Pressure Wind Wind Speed Wind Gust Humidity Rainfall Rate (Hourly)
00:07 56.1 °F /  13.4 °C 54.1 °F /  12.3 °C 30.2 in /  1022.2 hPa NW 2 mph /  3.2 km/h 7 mph /  11.3 km/h 93 % 0 in /  0.0 mm
00:12 55.9 °F /  13.3 °C 54 °F /  12.2 °C 30.2 in /  1022.2 hPa NNW 6 mph /  9.7 km/h 7 mph /  11.3 km/h 93 % 0 in /  0.0 mm
00:17 55.9 °F /  13.3 °C 54 °F /  12.2 °C 30.2 in /  1022.2 hPa NNW 3 mph /  4.8 km/h 12 mph /  19.3 km/h 93 % 0 in /  0.0 mm
00:22 55.9 °F /  13.3 °C 54 °F /  12.2 °C 30.2 in /  1022.2 hPa NNW 7 mph /  11.3 km/h 12 mph /  19.3 km/h 93 % 0 in /  0.0 mm
00:32 55.9 °F /  13.3 °C 53.6 °F /  12.0 °C 30.2 in /  1022.2 hPa NNW 2 mph /  3.2 km/h 10 mph /  16.1 km/h 92 % 0 in /  0.0 mm
00:37 55.8 °F /  13.2 °C 53.4 °F /  11.9 °C 30.2 in /  1022.2 hPa NNW 4 mph /  6.4 km/h 9 mph /  14.5 km/h 92 % 0 in /  0.0 mm
00:42 55.8 °F /  13.2 °C 53.4 °F /  11.9 °C 30.2 in /  1022.2 hPa NNW 5 mph /  8.0 km/h 11 mph /  17.7 km/h 92 % 0 in /  0.0 mm
00:47 55.8 °F /  13.2 °C 53.4 °F /  11.9 °C 30.2 in /  1022.2 hPa NNE 5 mph /  8.0 km/h 11 mph /  17.7 km/h 92 % 0 in /  0.0 mm
00:52 55.6 °F /  13.1 °C 53.2 °F /  11.8 °C 30.2 in /  1022.2 hPa North 4 mph /  6.4 km/h 9 mph /  14.5 km/h 92 % 0 in /  0.0 mm
00:57 55.6 °F /  13.1 °C 53.2 °F /  11.8 °C 30.2 in /  1022.2 hPa North 5 mph /  8.0 km/h 9 mph /  14.5 km/h 92 % 0 in /  0.0 mm
01:02 55.6 °F /  13.1 °C 53.2 °F /  11.8 °C 30.2 in /  1022.2 hPa NNW 3 mph /  4.8 km/h 9 mph /  14.5 km/h 92 % 0 in /  0.0 mm
01:07 55.4 °F /  13.0 °C 53.1 °F /  11.7 °C 30.2 in /  1022.2 hPa NW 3 mph /  4.8 km/h 9 mph /  14.5 km/h 92 % 0 in /  0.0 mm
01:12 55.2 °F /  12.9 °C 52.9 °F /  11.6 °C 30.2 in /  1022.2 hPa NNW 5 mph /  8.0 km/h 9 mph /  14.5 km/h 92 % 0 in /  0.0 mm
01:17 55.2 °F /  12.9 °C 52.9 °F /  11.6 °C 30.2 in /  1022.2 hPa NNE 3 mph /  4.8 km/h 8 mph /  12.9 km/h 92 % 0 in /  0.0 mm
01:22 55 °F /  12.8 °C 52.7 °F /  11.5 °C 30.2 in /  1022.2 hPa NNW 1 mph /  1.6 km/h 8 mph /  12.9 km/h 92 % 0 in /  0.0 mm
01:27 54.9 °F /  12.7 °C 52.5 °F /  11.4 °C 30.2 in /  1022.2 hPa North 2 mph /  3.2 km/h 9 mph /  14.5 km/h 92 % 0 in /  0.0 mm
01:37 54.7 °F /  12.6 °C 52.3 °F /  11.3 °C 30.2 in /  1022.6 hPa NNW 5 mph /  8.0 km/h 9 mph /  14.5 km/h 92 % 0 in /  0.0 mm
01:42 54.5 °F /  12.5 °C 52.5 °F /  11.4 °C 30.2 in /  1022.6 hPa WNW 1 mph /  1.6 km/h 6 mph /  9.7 km/h 93 % 0 in /  0.0 mm
01:47 54.5 °F /  12.5 °C 52.5 °F /  11.4 °C 30.2 in /  1022.6 hPa WNW 1 mph /  1.6 km/h 8 mph /  12.9 km/h 93 % 0 in /  0.0 mm
01:52 54.3 °F /  12.4 °C 52.3 °F /  11.3 °C 30.2 in /  1022.6 hPa NNW 2 mph /  3.2 km/h 8 mph /  12.9 km/h 93 % 0 in /  0.0 mm
01:57 54.3 °F /  12.4 °C 52.3 °F /  11.3 °C 30.2 in /  1022.9 hPa North 6 mph /  9.7 km/h 7 mph /  11.3 km/h 93 % 0 in /  0.0 mm
02:12 54 °F /  12.2 °C 51.4 °F /  10.8 °C 30.2 in /  1022.6 hPa North 9 mph /  14.5 km/h 12 mph /  19.3 km/h 91 % 0 in /  0.0 mm
02:22 53.6 °F /  12.0 °C 51.1 °F /  10.6 °C 30.2 in /  1022.6 hPa NNW 7 mph /  11.3 km/h 12 mph /  19.3 km/h 91 % 0 in /  0.0 mm
02:27 53.4 °F /  11.9 °C 50.9 °F /  10.5 °C 30.2 in /  1022.9 hPa NE 4 mph /  6.4 km/h 12 mph /  19.3 km/h 91 % 0 in /  0.0 mm
02:32 53.2 °F /  11.8 °C 50.9 °F /  10.5 °C 30.2 in /  1022.9 hPa NNW 4 mph /  6.4 km/h 13 mph /  20.9 km/h 92 % 0 in /  0.0 mm
02:42 52.9 °F /  11.6 °C 50.5 °F /  10.3 °C 30.2 in /  1022.9 hPa North 4 mph /  6.4 km/h 13 mph /  20.9 km/h 92 % 0 in /  0.0 mm
02:52 52.5 °F /  11.4 °C 50.2 °F /  10.1 °C 30.2 in /  1022.9 hPa NE 2 mph /  3.2 km/h 9 mph /  14.5 km/h 92 % 0 in /  0.0 mm
02:57 52.3 °F /  11.3 °C 50.4 °F /  10.2 °C 30.2 in /  1022.9 hPa NNE 3 mph /  4.8 km/h 9 mph /  14.5 km/h 93 % 0 in /  0.0 mm
03:02 52.3 °F /  11.3 °C 50.4 °F /  10.2 °C 30.2 in /  1022.9 hPa NE 1 mph /  1.6 km/h 7 mph /  11.3 km/h 93 % 0 in /  0.0 mm
03:07 52.2 °F /  11.2 °C 50.2 °F /  10.1 °C 30.2 in /  1022.9 hPa NE 4 mph /  6.4 km/h 7 mph /  11.3 km/h 93 % 0 in /  0.0 mm
03:12 52.3 °F /  11.3 °C 50.4 °F /  10.2 °C 30.2 in /  1022.9 hPa NE 5 mph /  8.0 km/h 10 mph /  16.1 km/h 93 % 0 in /  0.0 mm
03:17 52.3 °F /  11.3 °C 50.4 °F /  10.2 °C 30.2 in /  1022.9 hPa NE 6 mph /  9.7 km/h 10 mph /  16.1 km/h 93 % 0 in /  0.0 mm
03:22 52.3 °F /  11.3 °C 50.4 °F /  10.2 °C 30.2 in /  1022.9 hPa NE 2 mph /  3.2 km/h 10 mph /  16.1 km/h 93 % 0 in /  0.0 mm
03:27 52.3 °F /  11.3 °C 50.4 °F /  10.2 °C 30.2 in /  1023.2 hPa NE 1 mph /  1.6 km/h 8 mph /  12.9 km/h 93 % 0 in /  0.0 mm
03:32 52.3 °F /  11.3 °C 50.4 °F /  10.2 °C 30.2 in /  1023.2 hPa NE 3 mph /  4.8 km/h 8 mph /  12.9 km/h 93 % 0 in /  0.0 mm
03:37 52.2 °F /  11.2 °C 50.2 °F /  10.1 °C 30.2 in /  1023.2 hPa NNW 1 mph /  1.6 km/h 6 mph /  9.7 km/h 93 % 0 in /  0.0 mm
03:42 51.8 °F /  11.0 °C 49.8 °F /  9.9 °C 30.2 in /  1022.9 hPa NW 1 mph /  1.6 km/h 5 mph /  8.0 km/h 93 % 0 in /  0.0 mm
03:52 51.4 °F /  10.8 °C 49.5 °F /  9.7 °C 30.2 in /  1023.2 hPa NNE 5 mph /  8.0 km/h 7 mph /  11.3 km/h 93 % 0 in /  0.0 mm
03:57 51.4 °F /  10.8 °C 49.5 °F /  9.7 °C 30.2 in /  1023.2 hPa NE 4 mph /  6.4 km/h 9 mph /  14.5 km/h 93 % 0 in /  0.0 mm
04:02 51.3 °F /  10.7 °C 49.3 °F /  9.6 °C 30.2 in /  1023.2 hPa Calm   9 mph /  14.5 km/h 93 % 0 in /  0.0 mm
04:07 51.1 °F /  10.6 °C 49.1 °F /  9.5 °C 30.2 in /  1023.2 hPa NNW 2 mph /  3.2 km/h 9 mph /  14.5 km/h 93 % 0 in /  0.0 mm
04:12 51.1 °F /  10.6 °C 49.1 °F /  9.5 °C 30.2 in /  1023.2 hPa NNE 2 mph /  3.2 km/h 6 mph /  9.7 km/h 93 % 0 in /  0.0 mm
04:17 50.7 °F /  10.4 °C 48.7 °F /  9.3 °C 30.2 in /  1023.2 hPa Calm   5 mph /  8.0 km/h 93 % 0 in /  0.0 mm
04:22 50.4 °F /  10.2 °C 48.4 °F /  9.1 °C 30.2 in /  1023.2 hPa Calm   4 mph /  6.4 km/h 93 % 0 in /  0.0 mm
04:27 50.2 °F /  10.1 °C 48.2 °F /  9.0 °C 30.2 in /  1023.2 hPa Calm   2 mph /  3.2 km/h 93 % 0 in /  0.0 mm
04:32 49.8 °F /  9.9 °C 48.2 °F /  9.0 °C 30.2 in /  1023.2 hPa Calm   1 mph /  1.6 km/h 94 % 0 in /  0.0 mm
04:42 49.5 °F /  9.7 °C 47.8 °F /  8.8 °C 30.2 in /  1023.2 hPa Calm     94 % 0 in /  0.0 mm
04:47 49.3 °F /  9.6 °C 47.7 °F /  8.7 °C 30.2 in /  1023.2 hPa Calm   1 mph /  1.6 km/h 94 % 0 in /  0.0 mm
04:52 48.9 °F /  9.4 °C 47.3 °F /  8.5 °C 30.2 in /  1023.2 hPa Calm   1 mph /  1.6 km/h 94 % 0 in /  0.0 mm
04:57 48.6 °F /  9.2 °C 46.9 °F /  8.3 °C 30.2 in /  1023.2 hPa Calm   1 mph /  1.6 km/h 94 % 0 in /  0.0 mm
05:02 48.4 °F /  9.1 °C 46.8 °F /  8.2 °C 30.2 in /  1023.2 hPa Calm   1 mph /  1.6 km/h 94 % 0 in /  0.0 mm
05:07 48.2 °F /  9.0 °C 46.8 °F /  8.2 °C 30.2 in /  1023.2 hPa Calm     95 % 0 in /  0.0 mm
05:12 48 °F /  8.9 °C 46.6 °F /  8.1 °C 30.2 in /  1023.2 hPa Calm   2 mph /  3.2 km/h 95 % 0 in /  0.0 mm
05:17 47.8 °F /  8.8 °C 46.4 °F /  8.0 °C 30.2 in /  1023.2 hPa Calm   2 mph /  3.2 km/h 95 % 0 in /  0.0 mm
05:27 47.5 °F /  8.6 °C 46 °F /  7.8 °C 30.2 in /  1023.2 hPa WNW 2 mph /  3.2 km/h 2 mph /  3.2 km/h 95 % 0 in /  0.0 mm
05:37 47.1 °F /  8.4 °C 45.7 °F /  7.6 °C 30.2 in /  1023.2 hPa Calm   2 mph /  3.2 km/h 95 % 0 in /  0.0 mm
05:52 47.1 °F /  8.4 °C 46 °F /  7.8 °C 30.2 in /  1023.2 hPa Calm   3 mph /  4.8 km/h 96 % 0 in /  0.0 mm
05:57 47.1 °F /  8.4 °C 46 °F /  7.8 °C 30.2 in /  1023.6 hPa Calm   4 mph /  6.4 km/h 96 % 0 in /  0.0 mm
06:02 47.1 °F /  8.4 °C 46 °F /  7.8 °C 30.2 in /  1023.2 hPa NNW 1 mph /  1.6 km/h 4 mph /  6.4 km/h 96 % 0 in /  0.0 mm
06:12 46.9 °F /  8.3 °C 45.9 °F /  7.7 °C 30.2 in /  1023.2 hPa Calm   2 mph /  3.2 km/h 96 % 0 in /  0.0 mm
06:17 46.9 °F /  8.3 °C 45.9 °F /  7.7 °C 30.2 in /  1023.6 hPa NW 1 mph /  1.6 km/h 2 mph /  3.2 km/h 96 % 0 in /  0.0 mm
06:22 47.1 °F /  8.4 °C 46 °F /  7.8 °C 30.2 in /  1023.6 hPa Calm   2 mph /  3.2 km/h 96 % 0.01 in /  0.3 mm
06:32 46.9 °F /  8.3 °C 45.9 °F /  7.7 °C 30.2 in /  1023.6 hPa Calm   2 mph /  3.2 km/h 96 % 0.01 in /  0.3 mm
06:37 46.9 °F /  8.3 °C 45.9 °F /  7.7 °C 30.2 in /  1023.6 hPa NNW 2 mph /  3.2 km/h 3 mph /  4.8 km/h 96 % 0.01 in /  0.3 mm
06:42 47.1 °F /  8.4 °C 46 °F /  7.8 °C 30.2 in /  1023.6 hPa Calm   3 mph /  4.8 km/h 96 % 0.01 in /  0.3 mm
06:47 46.9 °F /  8.3 °C 45.9 °F /  7.7 °C 30.2 in /  1023.6 hPa Calm   2 mph /  3.2 km/h 96 % 0.01 in /  0.3 mm
06:52 46.8 °F /  8.2 °C 45.7 °F /  7.6 °C 30.2 in /  1023.6 hPa NNW 1 mph /  1.6 km/h 2 mph /  3.2 km/h 96 % 0.01 in /  0.3 mm
07:02 46.6 °F /  8.1 °C 45.5 °F /  7.5 °C 30.2 in /  1023.6 hPa WNW 4 mph /  6.4 km/h 4 mph /  6.4 km/h 96 % 0.01 in /  0.3 mm
07:12 46.8 °F /  8.2 °C 45.7 °F /  7.6 °C 30.2 in /  1023.9 hPa NW 1 mph /  1.6 km/h 5 mph /  8.0 km/h 96 % 0.01 in /  0.3 mm
07:17 46.8 °F /  8.2 °C 45.7 °F /  7.6 °C 30.2 in /  1023.9 hPa Calm   6 mph /  9.7 km/h 96 % 0.01 in /  0.3 mm
07:22 46.8 °F /  8.2 °C 45.7 °F /  7.6 °C 30.2 in /  1023.9 hPa NNW 1 mph /  1.6 km/h 6 mph /  9.7 km/h 96 % 0 in /  0.0 mm
07:32 46.8 °F /  8.2 °C 45.7 °F /  7.6 °C 30.2 in /  1023.9 hPa North 2 mph /  3.2 km/h 5 mph /  8.0 km/h 96 % 0 in /  0.0 mm
07:37 46.8 °F /  8.2 °C 45.7 °F /  7.6 °C 30.2 in /  1023.9 hPa NNW 1 mph /  1.6 km/h 5 mph /  8.0 km/h 96 % 0 in /  0.0 mm
07:42 46.6 °F /  8.1 °C 45.5 °F /  7.5 °C 30.2 in /  1023.9 hPa Calm   6 mph /  9.7 km/h 96 % 0 in /  0.0 mm
07:52 46.2 °F /  7.9 °C 45.1 °F /  7.3 °C 30.2 in /  1023.9 hPa North 1 mph /  1.6 km/h 3 mph /  4.8 km/h 96 % 0 in /  0.0 mm
07:57 46 °F /  7.8 °C 45 °F /  7.2 °C 30.3 in /  1024.3 hPa NE 1 mph /  1.6 km/h 3 mph /  4.8 km/h 96 % 0 in /  0.0 mm
08:02 45.9 °F /  7.7 °C 44.8 °F /  7.1 °C 30.3 in /  1024.3 hPa NNE 2 mph /  3.2 km/h 4 mph /  6.4 km/h 96 % 0 in /  0.0 mm
08:07 45.7 °F /  7.6 °C 44.6 °F /  7.0 °C 30.3 in /  1024.3 hPa NNW 1 mph /  1.6 km/h 4 mph /  6.4 km/h 96 % 0 in /  0.0 mm
08:12 45.7 °F /  7.6 °C 44.6 °F /  7.0 °C 30.3 in /  1024.3 hPa NW 1 mph /  1.6 km/h 4 mph /  6.4 km/h 96 % 0 in /  0.0 mm
08:17 45.7 °F /  7.6 °C 44.6 °F /  7.0 °C 30.3 in /  1024.3 hPa NNE 2 mph /  3.2 km/h 4 mph /  6.4 km/h 96 % 0 in /  0.0 mm
08:22 45.7 °F /  7.6 °C 44.6 °F /  7.0 °C 30.3 in /  1024.6 hPa NNW 3 mph /  4.8 km/h 4 mph /  6.4 km/h 96 % 0 in /  0.0 mm
08:32 46 °F /  7.8 °C 45 °F /  7.2 °C 30.3 in /  1024.6 hPa WNW 1 mph /  1.6 km/h 3 mph /  4.8 km/h 96 % 0 in /  0.0 mm
08:37 46.4 °F /  8.0 °C 45.7 °F /  7.6 °C 30.3 in /  1024.6 hPa NW 3 mph /  4.8 km/h 4 mph /  6.4 km/h 97 % 0 in /  0.0 mm
08:42 46.6 °F /  8.1 °C 45.5 °F /  7.5 °C 30.3 in /  1024.6 hPa NW 3 mph /  4.8 km/h 8 mph /  12.9 km/h 96 % 0 in /  0.0 mm
08:47 46.8 °F /  8.2 °C 45.7 °F /  7.6 °C 30.3 in /  1024.6 hPa NW 3 mph /  4.8 km/h 9 mph /  14.5 km/h 96 % 0 in /  0.0 mm
08:52 46.6 °F /  8.1 °C 45.5 °F /  7.5 °C 30.3 in /  1024.6 hPa NNW 3 mph /  4.8 km/h 9 mph /  14.5 km/h 96 % 0 in /  0.0 mm
08:57 46.8 °F /  8.2 °C 45.7 °F /  7.6 °C 30.3 in /  1024.6 hPa NW 1 mph /  1.6 km/h 9 mph /  14.5 km/h 96 % 0 in /  0.0 mm
09:02 46.9 °F /  8.3 °C 45.9 °F /  7.7 °C 30.3 in /  1024.6 hPa NNW 2 mph /  3.2 km/h 8 mph /  12.9 km/h 96 % 0 in /  0.0 mm
09:07 47.3 °F /  8.5 °C 45.9 °F /  7.7 °C 30.3 in /  1024.9 hPa WNW 2 mph /  3.2 km/h 6 mph /  9.7 km/h 95 % 0 in /  0.0 mm
09:12 47.5 °F /  8.6 °C 46 °F /  7.8 °C 30.3 in /  1024.9 hPa NW 2 mph /  3.2 km/h 6 mph /  9.7 km/h 95 % 0 in /  0.0 mm
09:22 47.7 °F /  8.7 °C 46 °F /  7.8 °C 30.3 in /  1024.9 hPa NNW 1 mph /  1.6 km/h 6 mph /  9.7 km/h 94 % 0 in /  0.0 mm
09:32 48.4 °F /  9.1 °C 46.8 °F /  8.2 °C 30.3 in /  1024.9 hPa NNW 1 mph /  1.6 km/h 6 mph /  9.7 km/h 94 % 0 in /  0.0 mm
09:37 48.6 °F /  9.2 °C 46.6 °F /  8.1 °C 30.3 in /  1024.9 hPa North 2 mph /  3.2 km/h 5 mph /  8.0 km/h 93 % 0 in /  0.0 mm
09:47 49.3 °F /  9.6 °C 47.3 °F /  8.5 °C 30.3 in /  1024.9 hPa NW 1 mph /  1.6 km/h 4 mph /  6.4 km/h 93 % 0 in /  0.0 mm
09:52 49.6 °F /  9.8 °C 47.5 °F /  8.6 °C 30.3 in /  1024.9 hPa NNW 1 mph /  1.6 km/h 4 mph /  6.4 km/h 92 % 0 in /  0.0 mm
09:57 50 °F /  10.0 °C 47.5 °F /  8.6 °C 30.3 in /  1024.9 hPa NNW 4 mph /  6.4 km/h 5 mph /  8.0 km/h 91 % 0 in /  0.0 mm
10:02 50.4 °F /  10.2 °C 47.5 °F /  8.6 °C 30.3 in /  1025.3 hPa NNW 1 mph /  1.6 km/h 6 mph /  9.7 km/h 90 % 0 in /  0.0 mm
10:07 50.7 °F /  10.4 °C 47.3 °F /  8.5 °C 30.3 in /  1025.3 hPa NNW 1 mph /  1.6 km/h 6 mph /  9.7 km/h 88 % 0 in /  0.0 mm
10:12 51.1 °F /  10.6 °C 47.3 °F /  8.5 °C 30.3 in /  1025.3 hPa WNW 2 mph /  3.2 km/h 6 mph /  9.7 km/h 87 % 0 in /  0.0 mm
10:17 51.4 °F /  10.8 °C 47.7 °F /  8.7 °C 30.3 in /  1025.3 hPa Calm   6 mph /  9.7 km/h 87 % 0 in /  0.0 mm
10:22 52.2 °F /  11.2 °C 48 °F /  8.9 °C 30.3 in /  1025.3 hPa Calm   6 mph /  9.7 km/h 86 % 0 in /  0.0 mm
10:27 52.7 °F /  11.5 °C 48.4 °F /  9.1 °C 30.3 in /  1025.3 hPa WNW 1 mph /  1.6 km/h 6 mph /  9.7 km/h 85 % 0 in /  0.0 mm
10:32 53.1 °F /  11.7 °C 48 °F /  8.9 °C 30.3 in /  1025.3 hPa West 2 mph /  3.2 km/h 3 mph /  4.8 km/h 83 % 0 in /  0.0 mm
10:37 53.2 °F /  11.8 °C 47.8 °F /  8.8 °C 30.3 in /  1025.3 hPa Calm   3 mph /  4.8 km/h 82 % 0 in /  0.0 mm
10:42 53.8 °F /  12.1 °C 47.8 °F /  8.8 °C 30.3 in /  1025.3 hPa NNW 2 mph /  3.2 km/h 5 mph /  8.0 km/h 80 % 0 in /  0.0 mm
10:47 54.1 °F /  12.3 °C 47.5 °F /  8.6 °C 30.3 in /  1025.3 hPa NNW 3 mph /  4.8 km/h 5 mph /  8.0 km/h 78 % 0 in /  0.0 mm
10:52 54.1 °F /  12.3 °C 47.1 °F /  8.4 °C 30.3 in /  1025.3 hPa West 3 mph /  4.8 km/h 9 mph /  14.5 km/h 77 % 0 in /  0.0 mm
10:57 54.3 °F /  12.4 °C 46.9 °F /  8.3 °C 30.3 in /  1025.6 hPa NNW 5 mph /  8.0 km/h 9 mph /  14.5 km/h 76 % 0 in /  0.0 mm
11:02 54.3 °F /  12.4 °C 47.3 °F /  8.5 °C 30.3 in /  1025.6 hPa WNW 1 mph /  1.6 km/h 9 mph /  14.5 km/h 77 % 0 in /  0.0 mm
11:07 54.3 °F /  12.4 °C 46.9 °F /  8.3 °C 30.3 in /  1025.6 hPa West 1 mph /  1.6 km/h 9 mph /  14.5 km/h 76 % 0 in /  0.0 mm
11:12 54.7 °F /  12.6 °C 47.3 °F /  8.5 °C 30.3 in /  1026.0 hPa NNW 4 mph /  6.4 km/h 9 mph /  14.5 km/h 76 % 0 in /  0.0 mm
11:17 54.7 °F /  12.6 °C 47.7 °F /  8.7 °C 30.3 in /  1025.6 hPa NW 4 mph /  6.4 km/h 9 mph /  14.5 km/h 77 % 0 in /  0.0 mm
11:22 54.9 °F /  12.7 °C 47.5 °F /  8.6 °C 30.3 in /  1026.0 hPa NNW 5 mph /  8.0 km/h 9 mph /  14.5 km/h 76 % 0 in /  0.0 mm
11:32 55.2 °F /  12.9 °C 47.8 °F /  8.8 °C 30.3 in /  1026.0 hPa North 5 mph /  8.0 km/h 10 mph /  16.1 km/h 76 % 0 in /  0.0 mm
11:37 55.4 °F /  13.0 °C 48 °F /  8.9 °C 30.3 in /  1026.0 hPa WNW 4 mph /  6.4 km/h 10 mph /  16.1 km/h 76 % 0 in /  0.0 mm
11:42 55.6 °F /  13.1 °C 46.8 °F /  8.2 °C 30.3 in /  1026.0 hPa NNW 4 mph /  6.4 km/h 10 mph /  16.1 km/h 72 % 0 in /  0.0 mm
11:47 55.6 °F /  13.1 °C 47.1 °F /  8.4 °C 30.3 in /  1026.0 hPa NNW 3 mph /  4.8 km/h 10 mph /  16.1 km/h 73 % 0 in /  0.0 mm
12:02 56.1 °F /  13.4 °C 47.7 °F /  8.7 °C 30.3 in /  1026.0 hPa North 5 mph /  8.0 km/h 9 mph /  14.5 km/h 73 % 0 in /  0.0 mm
12:12 56.1 °F /  13.4 °C 45.7 °F /  7.6 °C 30.3 in /  1026.0 hPa NNW 6 mph /  9.7 km/h 9 mph /  14.5 km/h 68 % 0 in /  0.0 mm
12:17 55.9 °F /  13.3 °C 45.1 °F /  7.3 °C 30.3 in /  1026.0 hPa NNW 4 mph /  6.4 km/h 9 mph /  14.5 km/h 67 % 0 in /  0.0 mm
12:22 55.6 °F /  13.1 °C 44.4 °F /  6.9 °C 30.3 in /  1026.0 hPa WNW 6 mph /  9.7 km/h 15 mph /  24.1 km/h 66 % 0 in /  0.0 mm
12:27 55.4 °F /  13.0 °C 45.9 °F /  7.7 °C 30.3 in /  1026.0 hPa NW 8 mph /  12.9 km/h 15 mph /  24.1 km/h 70 % 0 in /  0.0 mm
12:32 55.4 °F /  13.0 °C 46.6 °F /  8.1 °C 30.3 in /  1026.0 hPa North 3 mph /  4.8 km/h 15 mph /  24.1 km/h 72 % 0 in /  0.0 mm
12:42 56.1 °F /  13.4 °C 46 °F /  7.8 °C 30.3 in /  1026.0 hPa NNW 1 mph /  1.6 km/h 14 mph /  22.5 km/h 69 % 0 in /  0.0 mm
12:47 56.7 °F /  13.7 °C 46.6 °F /  8.1 °C 30.3 in /  1026.3 hPa NNE 5 mph /  8.0 km/h 14 mph /  22.5 km/h 69 % 0 in /  0.0 mm
12:52 56.5 °F /  13.6 °C 47.1 °F /  8.4 °C 30.3 in /  1026.3 hPa NW 7 mph /  11.3 km/h 14 mph /  22.5 km/h 71 % 0 in /  0.0 mm
12:57 56.1 °F /  13.4 °C 46.4 °F /  8.0 °C 30.3 in /  1026.3 hPa NNW 9 mph /  14.5 km/h 13 mph /  20.9 km/h 70 % 0 in /  0.0 mm
13:02 55.9 °F /  13.3 °C 45.1 °F /  7.3 °C 30.3 in /  1026.3 hPa WNW 5 mph /  8.0 km/h 13 mph /  20.9 km/h 67 % 0 in /  0.0 mm
13:07 56.5 °F /  13.6 °C 46 °F /  7.8 °C 30.3 in /  1026.3 hPa WNW 4 mph /  6.4 km/h 15 mph /  24.1 km/h 68 % 0 in /  0.0 mm
13:12 56.7 °F /  13.7 °C 45.9 °F /  7.7 °C 30.3 in /  1026.3 hPa NW 6 mph /  9.7 km/h 15 mph /  24.1 km/h 67 % 0 in /  0.0 mm
13:17 56.1 °F /  13.4 °C 45 °F /  7.2 °C 30.3 in /  1026.3 hPa NNW 9 mph /  14.5 km/h 15 mph /  24.1 km/h 66 % 0 in /  0.0 mm
13:22 55.8 °F /  13.2 °C 45.3 °F /  7.4 °C 30.3 in /  1026.3 hPa North 3 mph /  4.8 km/h 15 mph /  24.1 km/h 68 % 0 in /  0.0 mm
13:32 55.9 °F /  13.3 °C 45.5 °F /  7.5 °C 30.3 in /  1026.3 hPa WNW 6 mph /  9.7 km/h 15 mph /  24.1 km/h 68 % 0 in /  0.0 mm
13:37 56.1 °F /  13.4 °C 46 °F /  7.8 °C 30.3 in /  1026.3 hPa NNW 7 mph /  11.3 km/h 12 mph /  19.3 km/h 69 % 0 in /  0.0 mm
13:42 56.5 °F /  13.6 °C 46 °F /  7.8 °C 30.3 in /  1026.3 hPa NW 6 mph /  9.7 km/h 12 mph /  19.3 km/h 68 % 0 in /  0.0 mm
18:17 56.5 °F /  13.6 °C 44.8 °F /  7.1 °C 30.3 in /  1026.3 hPa NNW 2 mph /  3.2 km/h 9 mph /  14.5 km/h 65 % 0 in /  0.0 mm
18:27 55.9 °F /  13.3 °C 45.1 °F /  7.3 °C 30.3 in /  1026.6 hPa NNW 3 mph /  4.8 km/h 8 mph /  12.9 km/h 67 % 0 in /  0.0 mm
18:32 55.8 °F /  13.2 °C 45 °F /  7.2 °C 30.3 in /  1026.6 hPa NNW 1 mph /  1.6 km/h 8 mph /  12.9 km/h 67 % 0 in /  0.0 mm
18:42 55 °F /  12.8 °C 45.5 °F /  7.5 °C 30.3 in /  1026.6 hPa NNE 3 mph /  4.8 km/h 7 mph /  11.3 km/h 70 % 0 in /  0.0 mm
18:47 54.9 °F /  12.7 °C 45.7 °F /  7.6 °C 30.3 in /  1026.6 hPa North 1 mph /  1.6 km/h 5 mph /  8.0 km/h 71 % 0 in /  0.0 mm
18:52 54.5 °F /  12.5 °C 45.7 °F /  7.6 °C 30.3 in /  1026.6 hPa NNE 2 mph /  3.2 km/h 4 mph /  6.4 km/h 72 % 0 in /  0.0 mm
18:57 54.5 °F /  12.5 °C 45.7 °F /  7.6 °C 30.3 in /  1026.6 hPa NE 2 mph /  3.2 km/h 4 mph /  6.4 km/h 72 % 0 in /  0.0 mm
19:02 54.3 °F /  12.4 °C 45.5 °F /  7.5 °C 30.3 in /  1027.0 hPa NNE 2 mph /  3.2 km/h 4 mph /  6.4 km/h 72 % 0 in /  0.0 mm
19:07 54 °F /  12.2 °C 45.5 °F /  7.5 °C 30.3 in /  1027.0 hPa NE 1 mph /  1.6 km/h 4 mph /  6.4 km/h 73 % 0 in /  0.0 mm
19:12 53.8 °F /  12.1 °C 45.3 °F /  7.4 °C 30.3 in /  1027.0 hPa NNE 1 mph /  1.6 km/h 4 mph /  6.4 km/h 73 % 0 in /  0.0 mm
19:17 53.6 °F /  12.0 °C 45.5 °F /  7.5 °C 30.3 in /  1027.0 hPa NNE 1 mph /  1.6 km/h 6 mph /  9.7 km/h 74 % 0 in /  0.0 mm
19:22 53.1 °F /  11.7 °C 45 °F /  7.2 °C 30.3 in /  1027.0 hPa Calm   6 mph /  9.7 km/h 74 % 0 in /  0.0 mm
19:27 52.7 °F /  11.5 °C 45.3 °F /  7.4 °C 30.3 in /  1027.0 hPa Calm   6 mph /  9.7 km/h 76 % 0 in /  0.0 mm
19:32 52.3 °F /  11.3 °C 45 °F /  7.2 °C 30.3 in /  1027.3 hPa Calm   3 mph /  4.8 km/h 76 % 0 in /  0.0 mm
19:37 51.8 °F /  11.0 °C 44.8 °F /  7.1 °C 30.3 in /  1027.3 hPa Calm   2 mph /  3.2 km/h 77 % 0 in /  0.0 mm
19:42 51.4 °F /  10.8 °C 45.1 °F /  7.3 °C 30.3 in /  1027.3 hPa Calm   1 mph /  1.6 km/h 79 % 0 in /  0.0 mm
19:47 50.9 °F /  10.5 °C 45 °F /  7.2 °C 30.3 in /  1027.3 hPa Calm   1 mph /  1.6 km/h 80 % 0 in /  0.0 mm
19:52 50.5 °F /  10.3 °C 44.6 °F /  7.0 °C 30.4 in /  1027.7 hPa Calm   1 mph /  1.6 km/h 80 % 0 in /  0.0 mm
19:57 50.4 °F /  10.2 °C 44.8 °F /  7.1 °C 30.4 in /  1027.7 hPa Calm     81 % 0 in /  0.0 mm
20:02 50.2 °F /  10.1 °C 44.6 °F /  7.0 °C 30.4 in /  1027.7 hPa Calm   1 mph /  1.6 km/h 81 % 0 in /  0.0 mm
20:07 50 °F /  10.0 °C 44.8 °F /  7.1 °C 30.4 in /  1027.7 hPa Calm   1 mph /  1.6 km/h 82 % 0 in /  0.0 mm
20:12 49.6 °F /  9.8 °C 44.4 °F /  6.9 °C 30.4 in /  1027.7 hPa Calm   1 mph /  1.6 km/h 82 % 0 in /  0.0 mm
20:17 49.3 °F /  9.6 °C 44.1 °F /  6.7 °C 30.4 in /  1027.7 hPa Calm   1 mph /  1.6 km/h 82 % 0 in /  0.0 mm
20:22 49.1 °F /  9.5 °C 44.2 °F /  6.8 °C 30.4 in /  1027.7 hPa Calm   1 mph /  1.6 km/h 83 % 0 in /  0.0 mm
20:32 48.6 °F /  9.2 °C 43.9 °F /  6.6 °C 30.4 in /  1027.7 hPa Calm   1 mph /  1.6 km/h 84 % 0 in /  0.0 mm
20:37 48.6 °F /  9.2 °C 43.9 °F /  6.6 °C 30.4 in /  1027.7 hPa Calm   1 mph /  1.6 km/h 84 % 0 in /  0.0 mm
20:47 47.8 °F /  8.8 °C 43.5 °F /  6.4 °C 30.4 in /  1027.7 hPa WNW 1 mph /  1.6 km/h 2 mph /  3.2 km/h 85 % 0 in /  0.0 mm
20:52 47.5 °F /  8.6 °C 43.5 °F /  6.4 °C 30.4 in /  1027.7 hPa WNW 1 mph /  1.6 km/h 2 mph /  3.2 km/h 86 % 0 in /  0.0 mm
20:57 47.1 °F /  8.4 °C 43.5 °F /  6.4 °C 30.4 in /  1027.7 hPa Calm   2 mph /  3.2 km/h 87 % 0 in /  0.0 mm
21:02 46.8 °F /  8.2 °C 43.3 °F /  6.3 °C 30.4 in /  1027.7 hPa Calm   2 mph /  3.2 km/h 88 % 0 in /  0.0 mm
21:07 46.4 °F /  8.0 °C 43.3 °F /  6.3 °C 30.4 in /  1027.7 hPa WNW 1 mph /  1.6 km/h 2 mph /  3.2 km/h 89 % 0 in /  0.0 mm
21:12 46.2 °F /  7.9 °C 43.5 °F /  6.4 °C 30.4 in /  1027.7 hPa WNW 1 mph /  1.6 km/h 2 mph /  3.2 km/h 90 % 0 in /  0.0 mm
21:17 46.2 °F /  7.9 °C 43.5 °F /  6.4 °C 30.4 in /  1028.0 hPa WNW 1 mph /  1.6 km/h 2 mph /  3.2 km/h 90 % 0 in /  0.0 mm
21:22 46.2 °F /  7.9 °C 43.5 °F /  6.4 °C 30.4 in /  1027.7 hPa WNW 1 mph /  1.6 km/h 2 mph /  3.2 km/h 90 % 0 in /  0.0 mm
21:32 46.2 °F /  7.9 °C 43.2 °F /  6.2 °C 30.4 in /  1027.7 hPa Calm   1 mph /  1.6 km/h 89 % 0 in /  0.0 mm
21:37 46 °F /  7.8 °C 43.3 °F /  6.3 °C 30.4 in /  1027.7 hPa Calm   1 mph /  1.6 km/h 90 % 0 in /  0.0 mm
21:42 45.9 °F /  7.7 °C 43.2 °F /  6.2 °C 30.4 in /  1027.7 hPa Calm   1 mph /  1.6 km/h 90 % 0 in /  0.0 mm
21:47 46 °F /  7.8 °C 43.5 °F /  6.4 °C 30.4 in /  1028.0 hPa NNW 1 mph /  1.6 km/h 1 mph /  1.6 km/h 91 % 0 in /  0.0 mm
21:52 46.8 °F /  8.2 °C 44.1 °F /  6.7 °C 30.4 in /  1027.7 hPa Calm   1 mph /  1.6 km/h 90 % 0 in /  0.0 mm
21:57 46.9 °F /  8.3 °C 43.9 °F /  6.6 °C 30.4 in /  1028.0 hPa Calm   1 mph /  1.6 km/h 89 % 0 in /  0.0 mm
22:02 46.9 °F /  8.3 °C 43.5 °F /  6.4 °C 30.4 in /  1028.0 hPa Calm   1 mph /  1.6 km/h 88 % 0 in /  0.0 mm
22:07 47.1 °F /  8.4 °C 43.7 °F /  6.5 °C 30.4 in /  1028.0 hPa Calm   1 mph /  1.6 km/h 88 % 0 in /  0.0 mm
22:12 46.8 °F /  8.2 °C 43.2 °F /  6.2 °C 30.4 in /  1028.0 hPa Calm   1 mph /  1.6 km/h 87 % 0 in /  0.0 mm
22:17 46.6 °F /  8.1 °C 43.2 °F /  6.2 °C 30.4 in /  1028.0 hPa Calm   1 mph /  1.6 km/h 88 % 0 in /  0.0 mm
22:22 46.8 °F /  8.2 °C 43.7 °F /  6.5 °C 30.4 in /  1028.0 hPa Calm   1 mph /  1.6 km/h 89 % 0 in /  0.0 mm
22:27 47.1 °F /  8.4 °C 43.7 °F /  6.5 °C 30.4 in /  1028.0 hPa NNW 1 mph /  1.6 km/h 1 mph /  1.6 km/h 88 % 0 in /  0.0 mm
22:32 47.1 °F /  8.4 °C 43.7 °F /  6.5 °C 30.4 in /  1028.0 hPa Calm   1 mph /  1.6 km/h 88 % 0 in /  0.0 mm
22:37 46.9 °F /  8.3 °C 43.5 °F /  6.4 °C 30.4 in /  1028.0 hPa Calm   1 mph /  1.6 km/h 88 % 0 in /  0.0 mm
22:42 46.9 °F /  8.3 °C 43.5 °F /  6.4 °C 30.4 in /  1028.0 hPa Calm   1 mph /  1.6 km/h 88 % 0 in /  0.0 mm
22:47 46.4 °F /  8.0 °C 42.8 °F /  6.0 °C 30.4 in /  1028.3 hPa Calm   1 mph /  1.6 km/h 87 % 0 in /  0.0 mm
22:52 45.9 °F /  7.7 °C 42.4 °F /  5.8 °C 30.4 in /  1028.3 hPa Calm   1 mph /  1.6 km/h 88 % 0 in /  0.0 mm
23:02 46.2 °F /  7.9 °C 43.5 °F /  6.4 °C 30.4 in /  1028.0 hPa North 1 mph /  1.6 km/h 1 mph /  1.6 km/h 90 % 0 in /  0.0 mm
23:07 46.2 °F /  7.9 °C 43.2 °F /  6.2 °C 30.4 in /  1028.3 hPa North 1 mph /  1.6 km/h 2 mph /  3.2 km/h 89 % 0 in /  0.0 mm
23:12 46 °F /  7.8 °C 43 °F /  6.1 °C 30.4 in /  1028.3 hPa Calm   2 mph /  3.2 km/h 89 % 0 in /  0.0 mm
23:17 46 °F /  7.8 °C 43 °F /  6.1 °C 30.4 in /  1028.3 hPa Calm   2 mph /  3.2 km/h 89 % 0 in /  0.0 mm
23:22 45.9 °F /  7.7 °C 43.2 °F /  6.2 °C 30.4 in /  1028.3 hPa NNW 1 mph /  1.6 km/h 1 mph /  1.6 km/h 90 % 0 in /  0.0 mm
23:32 45.7 °F /  7.6 °C 43 °F /  6.1 °C 30.4 in /  1028.3 hPa Calm   2 mph /  3.2 km/h 90 % 0 in /  0.0 mm
23:37 45.7 °F /  7.6 °C 43 °F /  6.1 °C 30.4 in /  1028.3 hPa North 1 mph /  1.6 km/h 2 mph /  3.2 km/h 90 % 0 in /  0.0 mm
23:42 45.7 °F /  7.6 °C 43 °F /  6.1 °C 30.4 in /  1028.3 hPa Calm   2 mph /  3.2 km/h 90 % 0 in /  0.0 mm
23:47 45.7 °F /  7.6 °C 43 °F /  6.1 °C 30.4 in /  1028.7 hPa Calm   1 mph /  1.6 km/h 90 % 0 in /  0.0 mm
23:52 45.3 °F /  7.4 °C 42.6 °F /  5.9 °C 30.4 in /  1028.3 hPa Calm   1 mph /  1.6 km/h 90 % 0 in /  0.0 mm
Meteo18
Compliments of Weather Underground - 4 mb

Script developed by  Jim McMurry - jmcmurry@mwt.net Adapted for the template by  Wim van der Kuil - Leuven-Template.eu

You find our weather info also at:

European Weather Network

Weather Underground

Equipment we use:

Weather-station
Davis Vue

Weather-program
Meteohub

Weather-server
Raspberry PI 2 B+

Provider
1 and 1

Davis Vue

Meteohub

Raspberry PI 2 B+

1 and 1